sensor_id;sensor_type;location;lat;lon;timestamp;pressure;altitude;pressure_sealevel;temperature;humidity
75036;BME280;64247;51.540;5.854;2022-10-12T00:01:09;102235.75;;;2.74;96.00
75036;BME280;64247;51.540;5.854;2022-10-12T00:03:10;102240.06;;;2.75;96.09
75036;BME280;64247;51.540;5.854;2022-10-12T00:05:11;102237.38;;;2.75;95.83
75036;BME280;64247;51.540;5.854;2022-10-12T00:07:12;102237.13;;;2.76;96.00
75036;BME280;64247;51.540;5.854;2022-10-12T00:09:13;102238.19;;;2.75;95.91
75036;BME280;64247;51.540;5.854;2022-10-12T00:11:17;102233.66;;;2.76;95.71
75036;BME280;64247;51.540;5.854;2022-10-12T00:13:19;102241.69;;;2.76;95.98
75036;BME280;64247;51.540;5.854;2022-10-12T00:15:20;102235.50;;;2.75;96.09
75036;BME280;64247;51.540;5.854;2022-10-12T00:17:21;102242.50;;;2.76;95.46
75036;BME280;64247;51.540;5.854;2022-10-12T00:19:22;102235.00;;;2.78;95.62
75036;BME280;64247;51.540;5.854;2022-10-12T00:21:23;102232.31;;;2.78;95.40
75036;BME280;64247;51.540;5.854;2022-10-12T00:23:25;102235.53;;;2.80;95.59
75036;BME280;64247;51.540;5.854;2022-10-12T00:25:25;102229.13;;;2.81;95.56
75036;BME280;64247;51.540;5.854;2022-10-12T00:27:26;102228.88;;;2.83;95.18
75036;BME280;64247;51.540;5.854;2022-10-12T00:29:27;102232.09;;;2.85;95.26
75036;BME280;64247;51.540;5.854;2022-10-12T00:31:29;102236.41;;;2.86;94.96
75036;BME280;64247;51.540;5.854;2022-10-12T00:33:30;102231.88;;;2.87;95.14
75036;BME280;64247;51.540;5.854;2022-10-12T00:35:31;102229.97;;;2.87;95.08
75036;BME280;64247;51.540;5.854;2022-10-12T00:37:32;102230.25;;;2.85;95.04
75036;BME280;64247;51.540;5.854;2022-10-12T00:39:33;102233.47;;;2.88;95.11
75036;BME280;64247;51.540;5.854;2022-10-12T00:41:37;102225.97;;;2.90;94.87
75036;BME280;64247;51.540;5.854;2022-10-12T00:43:42;102221.75;;;2.94;95.14
75036;BME280;64247;51.540;5.854;2022-10-12T00:45:44;102220.97;;;2.98;95.33
75036;BME280;64247;51.540;5.854;2022-10-12T00:47:55;102220.97;;;2.98;95.62
75036;BME280;64247;51.540;5.854;2022-10-12T00:50:17;102223.97;;;3.02;95.50
75036;BME280;64247;51.540;5.854;2022-10-12T00:52:31;102223.13;;;3.01;95.56
75036;BME280;64247;51.540;5.854;2022-10-12T00:54:47;102218.53;;;2.97;95.18
75036;BME280;64247;51.540;5.854;2022-10-12T00:56:52;102219.28;;;2.92;95.17
75036;BME280;64247;51.540;5.854;2022-10-12T00:58:59;102218.75;;;2.90;95.28
75036;BME280;64247;51.540;5.854;2022-10-12T01:01:05;102221.66;;;2.89;95.17
75036;BME280;64247;51.540;5.854;2022-10-12T01:03:08;102218.69;;;2.85;94.98
75036;BME280;64247;51.540;5.854;2022-10-12T01:05:13;102224.59;;;2.82;94.72
75036;BME280;64247;51.540;5.854;2022-10-12T01:07:15;102221.91;;;2.82;94.74
75036;BME280;64247;51.540;5.854;2022-10-12T01:09:16;102220.00;;;2.82;94.86
75036;BME280;64247;51.540;5.854;2022-10-12T01:11:17;102214.94;;;2.86;95.12
75036;BME280;64247;51.540;5.854;2022-10-12T01:13:17;102225.69;;;2.86;95.39
75036;BME280;64247;51.540;5.854;2022-10-12T01:15:19;102224.88;;;2.85;95.43
75036;BME280;64247;51.540;5.854;2022-10-12T01:32:42;102211.06;;;3.04;94.94
75036;BME280;64247;51.540;5.854;2022-10-12T01:35:36;102211.94;;;3.10;94.88
75036;BME280;64247;51.540;5.854;2022-10-12T01:41:58;102200.16;;;3.16;94.80
75036;BME280;64247;51.540;5.854;2022-10-12T01:44:04;102195.09;;;3.20;94.66
75036;BME280;64247;51.540;5.854;2022-10-12T01:48:48;102192.97;;;3.22;94.78
75036;BME280;64247;51.540;5.854;2022-10-12T01:50:55;102187.34;;;3.23;94.55
75036;BME280;64247;51.540;5.854;2022-10-12T02:01:56;102180.69;;;3.31;94.66
75036;BME280;64247;51.540;5.854;2022-10-12T02:04:24;102179.41;;;3.39;95.03
75036;BME280;64247;51.540;5.854;2022-10-12T02:06:46;102176.19;;;3.42;95.14
75036;BME280;64247;51.540;5.854;2022-10-12T02:09:01;102178.34;;;3.40;94.69
75036;BME280;64247;51.540;5.854;2022-10-12T02:11:14;102178.03;;;3.36;94.78
75036;BME280;64247;51.540;5.854;2022-10-12T02:13:18;102178.31;;;3.35;95.03
75036;BME280;64247;51.540;5.854;2022-10-12T02:15:23;102175.88;;;3.33;94.82
75036;BME280;64247;51.540;5.854;2022-10-12T02:17:28;102171.31;;;3.33;94.64
75036;BME280;64247;51.540;5.854;2022-10-12T02:19:34;102173.72;;;3.30;94.46
75036;BME280;64247;51.540;5.854;2022-10-12T02:21:39;102182.81;;;3.24;94.18
75036;BME280;64247;51.540;5.854;2022-10-12T02:23:42;102173.13;;;3.23;94.17
75036;BME280;64247;51.540;5.854;2022-10-12T02:25:45;102166.94;;;3.22;94.50
75036;BME280;64247;51.540;5.854;2022-10-12T02:28:02;102165.84;;;3.18;94.71
75036;BME280;64247;51.540;5.854;2022-10-12T02:30:09;102161.53;;;3.17;94.47
75036;BME280;64247;51.540;5.854;2022-10-12T02:32:32;102171.47;;;3.16;94.57
75036;BME280;64247;51.540;5.854;2022-10-12T02:35:02;102168.75;;;3.11;94.67
75036;BME280;64247;51.540;5.854;2022-10-12T02:39:54;102173.31;;;3.11;94.86
75036;BME280;64247;51.540;5.854;2022-10-12T02:42:11;102164.97;;;3.07;95.12
75036;BME280;64247;51.540;5.854;2022-10-12T02:44:29;102157.69;;;3.03;95.25
75036;BME280;64247;51.540;5.854;2022-10-12T02:46:33;102147.47;;;2.99;95.64
75036;BME280;64247;51.540;5.854;2022-10-12T02:48:38;102154.97;;;2.97;95.51
75036;BME280;64247;51.540;5.854;2022-10-12T02:50:41;102149.56;;;2.92;95.55
75036;BME280;64247;51.540;5.854;2022-10-12T02:52:44;102153.81;;;2.88;95.43
75036;BME280;64247;51.540;5.854;2022-10-12T02:54:46;102151.63;;;2.85;95.52
75036;BME280;64247;51.540;5.854;2022-10-12T02:56:47;102149.50;;;2.82;95.59
75036;BME280;64247;51.540;5.854;2022-10-12T02:58:48;102141.16;;;2.78;95.61
75036;BME280;64247;51.540;5.854;2022-10-12T03:00:49;102148.91;;;2.75;95.41
75036;BME280;64247;51.540;5.854;2022-10-12T03:02:50;102146.72;;;2.72;95.47
75036;BME280;64247;51.540;5.854;2022-10-12T03:04:51;102153.66;;;2.67;95.36
75036;BME280;64247;51.540;5.854;2022-10-12T03:06:52;102153.91;;;2.66;95.57
75036;BME280;64247;51.540;5.854;2022-10-12T03:08:53;102150.13;;;2.62;95.35
75036;BME280;64247;51.540;5.854;2022-10-12T03:11:03;102148.75;;;2.59;95.44
75036;BME280;64247;51.540;5.854;2022-10-12T03:13:05;102148.50;;;2.61;95.85
75036;BME280;64247;51.540;5.854;2022-10-12T03:15:06;102147.44;;;2.62;95.79
75036;BME280;64247;51.540;5.854;2022-10-12T03:17:08;102146.59;;;2.61;96.00
75036;BME280;64247;51.540;5.854;2022-10-12T03:19:08;102145.31;;;2.64;96.39
75036;BME280;64247;51.540;5.854;2022-10-12T03:21:09;102141.25;;;2.61;96.41
75036;BME280;64247;51.540;5.854;2022-10-12T03:23:10;102133.16;;;2.56;96.40
75036;BME280;64247;51.540;5.854;2022-10-12T03:25:11;102142.78;;;2.52;96.25
75036;BME280;64247;51.540;5.854;2022-10-12T03:27:12;102140.59;;;2.49;96.64
75036;BME280;64247;51.540;5.854;2022-10-12T03:29:13;102139.25;;;2.46;96.40
75036;BME280;64247;51.540;5.854;2022-10-12T03:31:13;102136.00;;;2.44;96.29
75036;BME280;64247;51.540;5.854;2022-10-12T03:33:14;102135.44;;;2.42;96.85
75036;BME280;64247;51.540;5.854;2022-10-12T03:35:15;102136.75;;;2.40;96.96
75036;BME280;64247;51.540;5.854;2022-10-12T03:37:17;102139.41;;;2.34;96.63
75036;BME280;64247;51.540;5.854;2022-10-12T03:39:17;102139.34;;;2.29;96.13
75036;BME280;64247;51.540;5.854;2022-10-12T03:41:18;102134.19;;;2.22;96.56
75036;BME280;64247;51.540;5.854;2022-10-12T03:43:19;102138.69;;;2.17;96.51
75036;BME280;64247;51.540;5.854;2022-10-12T03:45:20;102136.53;;;2.14;96.28
75036;BME280;64247;51.540;5.854;2022-10-12T03:47:21;102137.00;;;2.11;96.04
75036;BME280;64247;51.540;5.854;2022-10-12T03:49:22;102141.25;;;2.07;96.56
75036;BME280;64247;51.540;5.854;2022-10-12T03:51:23;102138.81;;;2.05;96.38
75036;BME280;64247;51.540;5.854;2022-10-12T03:53:24;102144.44;;;2.03;96.79
75036;BME280;64247;51.540;5.854;2022-10-12T03:55:24;102138.78;;;2.00;96.82
75036;BME280;64247;51.540;5.854;2022-10-12T03:57:25;102134.22;;;2.00;96.62
75036;BME280;64247;51.540;5.854;2022-10-12T03:59:26;102128.38;;;2.03;96.86
75036;BME280;64247;51.540;5.854;2022-10-12T04:01:27;102128.66;;;2.07;97.32
75036;BME280;64247;51.540;5.854;2022-10-12T04:03:28;102128.38;;;2.03;97.43
75036;BME280;64247;51.540;5.854;2022-10-12T04:05:29;102127.00;;;2.01;96.89
75036;BME280;64247;51.540;5.854;2022-10-12T04:07:31;102126.75;;;2.02;96.81
75036;BME280;64247;51.540;5.854;2022-10-12T04:09:31;102124.06;;;2.02;97.04
75036;BME280;64247;51.540;5.854;2022-10-12T04:11:32;102123.75;;;1.99;97.15
75036;BME280;64247;51.540;5.854;2022-10-12T04:13:33;102120.19;;;1.93;97.61
75036;BME280;64247;51.540;5.854;2022-10-12T04:15:34;102119.91;;;1.89;97.46
75036;BME280;64247;51.540;5.854;2022-10-12T04:17:36;102116.91;;;1.86;97.58
75036;BME280;64247;51.540;5.854;2022-10-12T04:19:37;102122.25;;;1.86;97.28
75036;BME280;64247;51.540;5.854;2022-10-12T04:21:37;102116.38;;;1.84;97.17
75036;BME280;64247;51.540;5.854;2022-10-12T04:23:39;102112.88;;;1.83;97.19
75036;BME280;64247;51.540;5.854;2022-10-12T04:25:41;102111.00;;;1.84;98.20
75036;BME280;64247;51.540;5.854;2022-10-12T04:27:42;102114.97;;;1.81;97.47
75036;BME280;64247;51.540;5.854;2022-10-12T04:29:43;102111.44;;;1.76;98.11
75036;BME280;64247;51.540;5.854;2022-10-12T04:31:44;102113.81;;;1.72;97.68
75036;BME280;64247;51.540;5.854;2022-10-12T04:33:45;102112.69;;;1.68;97.30
75036;BME280;64247;51.540;5.854;2022-10-12T04:35:45;102114.25;;;1.64;97.94
75036;BME280;64247;51.540;5.854;2022-10-12T04:37:46;102118.47;;;1.60;97.14
75036;BME280;64247;51.540;5.854;2022-10-12T04:39:47;102112.00;;;1.55;98.08
75036;BME280;64247;51.540;5.854;2022-10-12T04:41:48;102114.91;;;1.54;97.48
75036;BME280;64247;51.540;5.854;2022-10-12T04:43:51;102118.66;;;1.53;97.14
75036;BME280;64247;51.540;5.854;2022-10-12T04:45:57;102110.06;;;1.51;97.84
75036;BME280;64247;51.540;5.854;2022-10-12T04:47:59;102113.00;;;1.49;97.74
75036;BME280;64247;51.540;5.854;2022-10-12T04:50:00;102124.50;;;1.50;97.95
75036;BME280;64247;51.540;5.854;2022-10-12T04:52:01;102123.94;;;1.48;97.25
75036;BME280;64247;51.540;5.854;2022-10-12T04:54:01;102122.81;;;1.44;98.00
75036;BME280;64247;51.540;5.854;2022-10-12T04:56:04;102119.00;;;1.39;97.43
75036;BME280;64247;51.540;5.854;2022-10-12T04:58:05;102120.38;;;1.42;97.91
75036;BME280;64247;51.540;5.854;2022-10-12T05:00:06;102125.50;;;1.44;97.58
75036;BME280;64247;51.540;5.854;2022-10-12T05:02:07;102118.84;;;1.46;97.87
75036;BME280;64247;51.540;5.854;2022-10-12T05:04:08;102127.66;;;1.47;97.96
75036;BME280;64247;51.540;5.854;2022-10-12T05:06:09;102123.13;;;1.47;97.09
75036;BME280;64247;51.540;5.854;2022-10-12T05:08:10;102121.50;;;1.46;97.57
75036;BME280;64247;51.540;5.854;2022-10-12T05:10:12;102123.34;;;1.46;97.00
75036;BME280;64247;51.540;5.854;2022-10-12T05:12:13;102116.41;;;1.45;97.56
75036;BME280;64247;51.540;5.854;2022-10-12T05:14:14;102116.09;;;1.41;97.34
75036;BME280;64247;51.540;5.854;2022-10-12T05:16:15;102114.16;;;1.36;96.82
75036;BME280;64247;51.540;5.854;2022-10-12T05:18:16;102116.28;;;1.34;96.77
75036;BME280;64247;51.540;5.854;2022-10-12T05:20:17;102119.19;;;1.33;97.27
75036;BME280;64247;51.540;5.854;2022-10-12T05:22:18;102112.47;;;1.30;96.95
75036;BME280;64247;51.540;5.854;2022-10-12T05:24:19;102111.09;;;1.27;97.73
75036;BME280;64247;51.540;5.854;2022-10-12T05:26:19;102116.94;;;1.24;97.62
75036;BME280;64247;51.540;5.854;2022-10-12T05:28:20;102109.97;;;1.23;97.33
75036;BME280;64247;51.540;5.854;2022-10-12T05:30:21;102109.41;;;1.21;96.91
75036;BME280;64247;51.540;5.854;2022-10-12T05:32:23;102107.03;;;1.25;98.05
75036;BME280;64247;51.540;5.854;2022-10-12T05:34:24;102107.59;;;1.27;97.49
75036;BME280;64247;51.540;5.854;2022-10-12T05:36:25;102105.41;;;1.24;98.11
75036;BME280;64247;51.540;5.854;2022-10-12T05:38:26;102105.94;;;1.21;98.04
75036;BME280;64247;51.540;5.854;2022-10-12T05:40:26;102097.59;;;1.17;97.95
75036;BME280;64247;51.540;5.854;2022-10-12T05:42:27;102106.66;;;1.16;98.18
75036;BME280;64247;51.540;5.854;2022-10-12T05:44:28;102112.25;;;1.15;98.08
75036;BME280;64247;51.540;5.854;2022-10-12T05:46:29;102110.88;;;1.12;98.07
75036;BME280;64247;51.540;5.854;2022-10-12T05:48:30;102109.28;;;1.11;97.77
75036;BME280;64247;51.540;5.854;2022-10-12T05:50:32;102112.25;;;1.15;98.13
75036;BME280;64247;51.540;5.854;2022-10-12T05:52:33;102100.25;;;1.17;97.67
75036;BME280;64247;51.540;5.854;2022-10-12T05:54:34;102103.97;;;1.16;98.51
75036;BME280;64247;51.540;5.854;2022-10-12T05:56:34;102106.09;;;1.14;98.26
75036;BME280;64247;51.540;5.854;2022-10-12T05:58:35;102111.69;;;1.13;97.90
75036;BME280;64247;51.540;5.854;2022-10-12T06:00:36;102115.41;;;1.12;98.33
75036;BME280;64247;51.540;5.854;2022-10-12T06:02:37;102120.03;;;1.16;97.78
75036;BME280;64247;51.540;5.854;2022-10-12T06:04:38;102113.13;;;1.20;98.27
75036;BME280;64247;51.540;5.854;2022-10-12T06:06:38;102118.56;;;1.25;98.34
75036;BME280;64247;51.540;5.854;2022-10-12T06:08:39;102122.34;;;1.30;98.03
75036;BME280;64247;51.540;5.854;2022-10-12T06:10:45;102111.72;;;1.35;98.07
75036;BME280;64247;51.540;5.854;2022-10-12T06:12:48;102111.81;;;1.40;98.13
75036;BME280;64247;51.540;5.854;2022-10-12T06:14:49;102110.31;;;1.49;97.93
75036;BME280;64247;51.540;5.854;2022-10-12T06:16:50;102111.00;;;1.62;98.37
75036;BME280;64247;51.540;5.854;2022-10-12T06:18:51;102107.94;;;1.75;97.86
75036;BME280;64247;51.540;5.854;2022-10-12T06:20:53;102109.13;;;1.84;97.50
75036;BME280;64247;51.540;5.854;2022-10-12T06:22:54;102113.47;;;1.90;97.04
75036;BME280;64247;51.540;5.854;2022-10-12T06:24:55;102110.94;;;2.01;97.04
75036;BME280;64247;51.540;5.854;2022-10-12T06:26:56;102104.72;;;2.22;96.71
75036;BME280;64247;51.540;5.854;2022-10-12T06:28:56;102100.38;;;2.44;96.20
75036;BME280;64247;51.540;5.854;2022-10-12T06:31:00;102103.50;;;2.68;96.59
75036;BME280;64247;51.540;5.854;2022-10-12T06:33:00;102107.97;;;2.90;96.72
75036;BME280;64247;51.540;5.854;2022-10-12T06:35:01;102103.56;;;3.11;96.58
75036;BME280;64247;51.540;5.854;2022-10-12T06:37:03;102114.19;;;3.38;96.80
75036;BME280;64247;51.540;5.854;2022-10-12T06:39:04;102107.06;;;3.64;96.90
75036;BME280;64247;51.540;5.854;2022-10-12T06:41:05;102107.16;;;3.90;96.76
75036;BME280;64247;51.540;5.854;2022-10-12T06:43:06;102104.22;;;4.02;96.30
75036;BME280;64247;51.540;5.854;2022-10-12T06:45:07;102102.66;;;4.22;96.44
75036;BME280;64247;51.540;5.854;2022-10-12T06:47:08;102099.44;;;4.35;96.11
75036;BME280;64247;51.540;5.854;2022-10-12T06:49:09;102104.56;;;4.42;96.30
75036;BME280;64247;51.540;5.854;2022-10-12T06:51:10;102102.94;;;4.41;95.28
75036;BME280;64247;51.540;5.854;2022-10-12T06:53:11;102108.59;;;4.44;95.08
75036;BME280;64247;51.540;5.854;2022-10-12T06:55:12;102105.63;;;4.46;95.10
75036;BME280;64247;51.540;5.854;2022-10-12T06:57:13;102105.66;;;4.51;94.69
75036;BME280;64247;51.540;5.854;2022-10-12T06:59:14;102107.00;;;4.54;94.85
75036;BME280;64247;51.540;5.854;2022-10-12T07:01:15;102102.94;;;4.56;94.06
75036;BME280;64247;51.540;5.854;2022-10-12T07:03:16;102101.88;;;4.63;94.08
75036;BME280;64247;51.540;5.854;2022-10-12T07:05:18;102105.91;;;4.70;93.72
75036;BME280;64247;51.540;5.854;2022-10-12T07:07:20;102105.38;;;4.73;93.18
75036;BME280;64247;51.540;5.854;2022-10-12T07:09:21;102110.75;;;4.73;92.69
75036;BME280;64247;51.540;5.854;2022-10-12T07:11:22;102111.28;;;4.75;92.60
75036;BME280;64247;51.540;5.854;2022-10-12T07:13:23;102106.97;;;4.80;93.35
75036;BME280;64247;51.540;5.854;2022-10-12T07:15:24;102110.75;;;4.94;93.23
75036;BME280;64247;51.540;5.854;2022-10-12T07:17:25;102099.69;;;5.11;92.94
75036;BME280;64247;51.540;5.854;2022-10-12T07:19:25;102102.31;;;5.32;93.14
75036;BME280;64247;51.540;5.854;2022-10-12T07:21:26;102104.69;;;5.54;92.98
75036;BME280;64247;51.540;5.854;2022-10-12T07:23:29;102105.38;;;5.80;92.37
75036;BME280;64247;51.540;5.854;2022-10-12T07:25:31;102112.28;;;6.02;92.74
75036;BME280;64247;51.540;5.854;2022-10-12T07:27:32;102108.69;;;6.17;92.30
75036;BME280;64247;51.540;5.854;2022-10-12T07:29:33;102105.34;;;6.36;91.99
75036;BME280;64247;51.540;5.854;2022-10-12T07:31:36;102097.06;;;6.56;91.59
75036;BME280;64247;51.540;5.854;2022-10-12T07:33:37;102101.72;;;6.85;90.97
75036;BME280;64247;51.540;5.854;2022-10-12T07:35:38;102097.94;;;7.35;90.01
75036;BME280;64247;51.540;5.854;2022-10-12T07:37:39;102097.66;;;7.60;89.18
75036;BME280;64247;51.540;5.854;2022-10-12T07:39:40;102095.41;;;7.87;89.73
75036;BME280;64247;51.540;5.854;2022-10-12T07:41:41;102098.88;;;8.12;89.66
75036;BME280;64247;51.540;5.854;2022-10-12T07:43:42;102096.94;;;8.50;88.66
75036;BME280;64247;51.540;5.854;2022-10-12T07:45:43;102090.22;;;8.81;85.93
75036;BME280;64247;51.540;5.854;2022-10-12T07:47:44;102088.22;;;8.86;84.04
75036;BME280;64247;51.540;5.854;2022-10-12T07:49:46;102090.13;;;8.86;82.76
75036;BME280;64247;51.540;5.854;2022-10-12T07:51:47;102086.09;;;8.83;82.80
75036;BME280;64247;51.540;5.854;2022-10-12T07:53:47;102088.88;;;8.78;82.82
75036;BME280;64247;51.540;5.854;2022-10-12T07:55:50;102093.31;;;8.74;82.98
75036;BME280;64247;51.540;5.854;2022-10-12T07:57:51;102085.34;;;8.64;82.21
75036;BME280;64247;51.540;5.854;2022-10-12T07:59:51;102098.47;;;8.57;82.99
75036;BME280;64247;51.540;5.854;2022-10-12T08:01:52;102101.78;;;8.53;83.08
75036;BME280;64247;51.540;5.854;2022-10-12T08:03:53;102096.06;;;8.55;82.81
75036;BME280;64247;51.540;5.854;2022-10-12T08:05:54;102093.41;;;8.69;82.25
75036;BME280;64247;51.540;5.854;2022-10-12T08:07:55;102098.75;;;8.88;82.09
75036;BME280;64247;51.540;5.854;2022-10-12T08:09:56;102102.69;;;9.10;81.37
75036;BME280;64247;51.540;5.854;2022-10-12T08:11:57;102100.19;;;9.27;81.34
75036;BME280;64247;51.540;5.854;2022-10-12T08:13:59;102101.00;;;9.28;81.16
75036;BME280;64247;51.540;5.854;2022-10-12T08:16:02;102098.88;;;9.25;80.76
75036;BME280;64247;51.540;5.854;2022-10-12T08:18:04;102099.88;;;9.15;80.71
75036;BME280;64247;51.540;5.854;2022-10-12T08:20:06;102108.63;;;9.26;80.49
75036;BME280;64247;51.540;5.854;2022-10-12T08:22:07;102107.50;;;9.69;80.30
75036;BME280;64247;51.540;5.854;2022-10-12T08:24:11;102101.69;;;10.35;79.17
75036;BME280;64247;51.540;5.854;2022-10-12T08:26:13;102093.16;;;10.96;76.25
75036;BME280;64247;51.540;5.854;2022-10-12T08:28:15;102099.72;;;11.52;73.84
75036;BME280;64247;51.540;5.854;2022-10-12T08:30:16;102088.72;;;11.84;71.96
75036;BME280;64247;51.540;5.854;2022-10-12T08:32:17;102098.34;;;11.64;71.73
75036;BME280;64247;51.540;5.854;2022-10-12T08:34:18;102093.69;;;11.64;72.17
75036;BME280;64247;51.540;5.854;2022-10-12T08:36:19;102095.13;;;11.62;72.60
75036;BME280;64247;51.540;5.854;2022-10-12T08:38:20;102102.50;;;11.70;72.13
75036;BME280;64247;51.540;5.854;2022-10-12T08:40:28;102107.31;;;11.91;72.18
75036;BME280;64247;51.540;5.854;2022-10-12T08:42:42;102103.19;;;12.19;71.16
75036;BME280;64247;51.540;5.854;2022-10-12T08:48:07;102101.25;;;13.03;68.54
75036;BME280;64247;51.540;5.854;2022-10-12T08:50:21;102096.81;;;13.67;66.51
75036;BME280;64247;51.540;5.854;2022-10-12T08:52:57;102099.84;;;14.29;65.44
75036;BME280;64247;51.540;5.854;2022-10-12T08:55:48;102094.31;;;14.83;61.81
75036;BME280;64247;51.540;5.854;2022-10-12T08:57:48;102093.56;;;15.20;59.96
75036;BME280;64247;51.540;5.854;2022-10-12T08:59:49;102101.53;;;15.25;59.91
75036;BME280;64247;51.540;5.854;2022-10-12T09:02:24;102091.94;;;15.44;59.42
75036;BME280;64247;51.540;5.854;2022-10-12T09:04:59;102084.16;;;15.83;59.23
75036;BME280;64247;51.540;5.854;2022-10-12T09:07:27;102088.59;;;15.88;57.75
75036;BME280;64247;51.540;5.854;2022-10-12T09:13:05;102091.22;;;15.72;57.32
75036;BME280;64247;51.540;5.854;2022-10-12T09:15:24;102090.28;;;15.92;55.90
75036;BME280;64247;51.540;5.854;2022-10-12T09:17:38;102094.63;;;15.93;55.91
75036;BME280;64247;51.540;5.854;2022-10-12T09:19:43;102088.63;;;16.16;55.82
75036;BME280;64247;51.540;5.854;2022-10-12T09:21:46;102091.78;;;16.18;56.49
75036;BME280;64247;51.540;5.854;2022-10-12T09:23:48;102087.44;;;16.17;55.24
75036;BME280;64247;51.540;5.854;2022-10-12T09:25:52;102090.50;;;16.00;55.47
75036;BME280;64247;51.540;5.854;2022-10-12T09:28:12;102089.25;;;15.97;56.27
75036;BME280;64247;51.540;5.854;2022-10-12T09:30:19;102093.25;;;15.87;55.95
75036;BME280;64247;51.540;5.854;2022-10-12T09:35:32;102096.25;;;15.70;57.72
75036;BME280;64247;51.540;5.854;2022-10-12T09:37:34;102098.31;;;15.85;58.08
75036;BME280;64247;51.540;5.854;2022-10-12T09:39:36;102099.38;;;16.09;56.44
75036;BME280;64247;51.540;5.854;2022-10-12T09:41:42;102095.34;;;16.19;56.46
75036;BME280;64247;51.540;5.854;2022-10-12T09:43:45;102108.41;;;16.25;56.06
75036;BME280;64247;51.540;5.854;2022-10-12T09:45:50;102104.41;;;16.35;55.76
75036;BME280;64247;51.540;5.854;2022-10-12T09:48:11;102109.13;;;16.51;56.26
75036;BME280;64247;51.540;5.854;2022-10-12T09:50:38;102108.09;;;16.87;55.82
75036;BME280;64247;51.540;5.854;2022-10-12T09:52:45;102098.31;;;17.02;55.42
75036;BME280;64247;51.540;5.854;2022-10-12T09:54:53;102109.19;;;16.99;56.48
75036;BME280;64247;51.540;5.854;2022-10-12T09:56:59;102102.63;;;16.43;55.75
75036;BME280;64247;51.540;5.854;2022-10-12T09:59:03;102098.81;;;16.03;57.16
75036;BME280;64247;51.540;5.854;2022-10-12T10:01:12;102099.78;;;15.70;58.36
75036;BME280;64247;51.540;5.854;2022-10-12T10:03:23;102092.84;;;15.48;59.15
75036;BME280;64247;51.540;5.854;2022-10-12T10:08:19;102097.03;;;16.23;57.48
75036;BME280;64247;51.540;5.854;2022-10-12T10:10:22;102087.75;;;16.72;56.04
75036;BME280;64247;51.540;5.854;2022-10-12T10:12:27;102080.25;;;17.01;56.81
75036;BME280;64247;51.540;5.854;2022-10-12T10:14:34;102092.06;;;16.89;55.84
75036;BME280;64247;51.540;5.854;2022-10-12T10:16:46;102086.78;;;16.81;55.50
75036;BME280;64247;51.540;5.854;2022-10-12T10:18:55;102088.19;;;16.90;55.36
75036;BME280;64247;51.540;5.854;2022-10-12T10:21:01;102079.75;;;16.67;55.89
75036;BME280;64247;51.540;5.854;2022-10-12T10:23:05;102083.59;;;16.63;55.50
75036;BME280;64247;51.540;5.854;2022-10-12T10:25:19;102076.16;;;16.79;54.67
75036;BME280;64247;51.540;5.854;2022-10-12T10:27:40;102078.66;;;17.16;55.12
75036;BME280;64247;51.540;5.854;2022-10-12T10:29:41;102079.97;;;17.58;54.69
75036;BME280;64247;51.540;5.854;2022-10-12T10:31:43;102080.22;;;17.88;52.51
75036;BME280;64247;51.540;5.854;2022-10-12T10:36:25;102065.97;;;17.63;52.94
75036;BME280;64247;51.540;5.854;2022-10-12T10:38:30;102070.06;;;17.53;53.01
75036;BME280;64247;51.540;5.854;2022-10-12T10:40:55;102076.56;;;17.29;52.56
75036;BME280;64247;51.540;5.854;2022-10-12T10:43:04;102063.53;;;17.42;52.53
75036;BME280;64247;51.540;5.854;2022-10-12T10:45:21;102054.59;;;17.45;52.50
75036;BME280;64247;51.540;5.854;2022-10-12T10:47:29;102048.59;;;17.39;54.45
75036;BME280;64247;51.540;5.854;2022-10-12T10:49:56;102069.56;;;17.32;52.96
75036;BME280;64247;51.540;5.854;2022-10-12T10:52:00;102070.09;;;17.37;53.72
75036;BME280;64247;51.540;5.854;2022-10-12T10:54:31;102068.44;;;17.33;52.93
75036;BME280;64247;51.540;5.854;2022-10-12T10:56:36;102071.63;;;17.35;53.06
75036;BME280;64247;51.540;5.854;2022-10-12T11:01:53;102051.44;;;17.82;52.37
75036;BME280;64247;51.540;5.854;2022-10-12T11:04:03;102049.53;;;18.02;51.36
75036;BME280;64247;51.540;5.854;2022-10-12T11:06:41;102051.97;;;18.08;50.95
75036;BME280;64247;51.540;5.854;2022-10-12T11:08:45;102043.56;;;18.20;52.25
75036;BME280;64247;51.540;5.854;2022-10-12T11:11:19;102051.47;;;18.02;52.01
75036;BME280;64247;51.540;5.854;2022-10-12T11:13:31;102041.16;;;17.95;52.46
75036;BME280;64247;51.540;5.854;2022-10-12T11:15:48;102047.31;;;17.92;52.04
75036;BME280;64247;51.540;5.854;2022-10-12T11:18:03;102039.03;;;18.08;52.09
75036;BME280;64247;51.540;5.854;2022-10-12T11:23:38;102041.69;;;19.21;48.76
75036;BME280;64247;51.540;5.854;2022-10-12T11:26:25;102044.19;;;19.90;45.31
75036;BME280;64247;51.540;5.854;2022-10-12T11:28:31;102044.00;;;20.10;44.90
75036;BME280;64247;51.540;5.854;2022-10-12T11:30:46;102030.16;;;19.72;45.38
75036;BME280;64247;51.540;5.854;2022-10-12T11:33:04;102033.19;;;19.60;45.93
75036;BME280;64247;51.540;5.854;2022-10-12T11:35:30;102029.03;;;19.77;46.23
75036;BME280;64247;51.540;5.854;2022-10-12T11:37:38;102025.16;;;19.82;46.40
75036;BME280;64247;51.540;5.854;2022-10-12T11:39:49;102004.78;;;19.56;45.58
75036;BME280;64247;51.540;5.854;2022-10-12T11:41:54;102007.19;;;19.57;45.66
75036;BME280;64247;51.540;5.854;2022-10-12T11:44:13;102012.88;;;19.41;46.09
75036;BME280;64247;51.540;5.854;2022-10-12T11:46:22;102001.38;;;19.36;46.04
75036;BME280;64247;51.540;5.854;2022-10-12T11:48:40;101988.25;;;19.56;45.65
75036;BME280;64247;51.540;5.854;2022-10-12T11:51:02;101997.03;;;19.65;45.94
75036;BME280;64247;51.540;5.854;2022-10-12T11:58:57;101982.66;;;18.64;47.64
75036;BME280;64247;51.540;5.854;2022-10-12T12:04:24;101991.28;;;21.23;41.21
75036;BME280;64247;51.540;5.854;2022-10-12T12:06:56;101979.69;;;21.88;41.12